createdAt,value
2023-09-02T00:02:02.290Z,93.80
2023-09-02T00:04:30.923Z,93.80
2023-09-02T00:06:59.130Z,93.90
2023-09-02T00:09:26.574Z,93.60
2023-09-02T00:11:54.001Z,93.90
2023-09-02T00:14:21.472Z,93.70
2023-09-02T00:16:49.242Z,93.90
2023-09-02T00:19:16.593Z,93.90
2023-09-02T00:21:44.593Z,93.70
2023-09-02T00:24:12.079Z,93.50
2023-09-02T00:26:40.057Z,93.80
2023-09-02T00:29:07.573Z,93.80
2023-09-02T00:31:35.194Z,93.70
2023-09-02T00:34:03.251Z,93.70
2023-09-02T00:36:32.405Z,93.40
2023-09-02T00:39:00.855Z,93.50
2023-09-02T00:42:01.474Z,93.80
2023-09-02T00:44:29.708Z,93.50
2023-09-02T00:47:01.380Z,93.70
2023-09-02T00:49:28.868Z,93.70
2023-09-02T00:51:56.638Z,93.80
2023-09-02T00:54:24.705Z,93.60
2023-09-02T00:56:52.631Z,93.60
2023-09-02T00:59:20.151Z,93.60
2023-09-02T01:01:47.611Z,93.60
2023-09-02T01:04:15.199Z,93.50
2023-09-02T01:06:43.644Z,93.70
2023-09-02T01:09:12.561Z,93.50
2023-09-02T01:11:40.667Z,93.50
2023-09-02T01:14:10.145Z,93.60
2023-09-02T01:16:37.849Z,93.50
2023-09-02T01:19:09.072Z,93.50
2023-09-02T01:21:52.210Z,93.50
2023-09-02T01:25:04.136Z,93.50
2023-09-02T01:27:54.051Z,93.40
2023-09-02T01:30:27.853Z,93.50
2023-09-02T01:32:58.973Z,93.50
2023-09-02T01:35:31.393Z,93.30
2023-09-02T01:37:59.934Z,93.40
2023-09-02T01:40:29.671Z,93.50
2023-09-02T01:43:01.753Z,93.30
2023-09-02T01:45:36.820Z,93.30
2023-09-02T01:48:06.223Z,93.10
2023-09-02T01:50:35.548Z,93.30
2023-09-02T01:53:04.058Z,93.30
2023-09-02T01:55:32.364Z,93.20
2023-09-02T01:58:01.232Z,93.10
2023-09-02T02:00:29.378Z,93.20
2023-09-02T02:02:57.630Z,93.20
2023-09-02T02:05:43.739Z,93.30
2023-09-02T02:08:19.439Z,93.30
2023-09-02T02:10:48.762Z,93.30
2023-09-02T02:13:18.467Z,93.20
2023-09-02T02:15:46.234Z,93.10
2023-09-02T02:18:15.180Z,93.20
2023-09-02T02:20:59.996Z,93.20
2023-09-02T02:23:27.867Z,93.20
2023-09-02T02:26:17.061Z,93.00
2023-09-02T02:28:46.111Z,93.10
2023-09-02T02:31:13.827Z,93.00
2023-09-02T02:33:41.198Z,93.10
2023-09-02T02:36:10.915Z,93.10
2023-09-02T02:38:38.585Z,93.10
2023-09-02T02:41:06.069Z,93.00
2023-09-02T02:43:33.483Z,93.00
2023-09-02T02:46:00.976Z,92.90
2023-09-02T02:48:34.571Z,93.00
2023-09-02T02:51:02.106Z,93.00
2023-09-02T02:53:29.702Z,92.90
2023-09-02T02:55:58.086Z,92.90
2023-09-02T02:58:25.611Z,92.90
2023-09-02T03:01:08.670Z,92.80
2023-09-02T03:03:37.241Z,92.80
2023-09-02T03:06:08.571Z,92.80
2023-09-02T03:08:38.191Z,92.80
2023-09-02T03:11:09.902Z,92.70
2023-09-02T03:13:37.763Z,92.70
2023-09-02T03:16:06.682Z,92.70
2023-09-02T03:18:34.425Z,93.00
2023-09-02T03:21:06.973Z,92.70
2023-09-02T03:23:35.902Z,92.60
2023-09-02T03:26:13.633Z,92.60
2023-09-02T03:28:40.981Z,92.60
2023-09-02T03:31:10.268Z,92.60
2023-09-02T03:33:38.954Z,92.60
2023-09-02T03:36:07.304Z,92.60
2023-09-02T03:38:34.649Z,92.60
2023-09-02T03:41:11.264Z,92.60
2023-09-02T03:43:38.723Z,92.50
2023-09-02T03:46:07.573Z,92.50
2023-09-02T03:48:35.435Z,92.50
2023-09-02T03:51:17.824Z,92.50
2023-09-02T03:53:45.596Z,92.50
2023-09-02T03:56:13.016Z,92.50
2023-09-02T03:58:41.171Z,92.50
2023-09-02T04:04:00.677Z,92.50
2023-09-02T04:06:29.114Z,92.40
2023-09-02T04:08:56.661Z,92.40
2023-09-02T04:11:24.629Z,92.40
2023-09-02T04:13:52.279Z,92.40
2023-09-02T04:16:19.837Z,92.40
2023-09-02T04:18:47.648Z,92.40
2023-09-02T04:21:14.889Z,92.40
2023-09-02T04:23:43.147Z,92.30
2023-09-02T04:26:10.621Z,92.40
2023-09-02T04:28:38.862Z,92.50
2023-09-02T04:31:06.354Z,92.60
2023-09-02T04:33:33.845Z,92.60
2023-09-02T04:36:04.068Z,92.60
2023-09-02T04:38:31.984Z,92.50
2023-09-02T04:41:08.215Z,92.50
2023-09-02T04:43:36.626Z,92.50
2023-09-02T04:46:05.487Z,92.50
2023-09-02T04:48:32.754Z,92.50
2023-09-02T04:51:00.630Z,92.50
2023-09-02T04:53:28.114Z,92.50
2023-09-02T04:55:55.765Z,92.50
2023-09-02T04:58:24.843Z,92.70
2023-09-02T05:00:53.983Z,92.50
2023-09-02T05:03:21.977Z,92.50
2023-09-02T05:05:49.605Z,92.50
2023-09-02T05:08:16.910Z,92.40
2023-09-02T05:10:44.396Z,92.40
2023-09-02T05:13:11.937Z,92.40
2023-09-02T05:15:39.229Z,92.40
2023-09-02T05:18:06.755Z,92.40
2023-09-02T05:20:34.225Z,92.40
2023-09-02T05:23:02.051Z,92.40
2023-09-02T05:25:29.784Z,92.40
2023-09-02T05:27:57.291Z,92.40
2023-09-02T05:30:25.100Z,92.40
2023-09-02T05:32:52.565Z,92.40
2023-09-02T05:35:20.702Z,92.40
2023-09-02T05:37:48.246Z,92.40
2023-09-02T05:40:15.715Z,92.40
2023-09-02T05:42:43.304Z,92.40
2023-09-02T05:45:11.240Z,92.40
2023-09-02T05:47:38.613Z,92.30
2023-09-02T05:50:06.892Z,92.40
2023-09-02T05:52:34.594Z,92.30
2023-09-02T05:55:03.394Z,92.30
2023-09-02T05:57:31.194Z,92.30
2023-09-02T05:59:58.810Z,92.30
2023-09-02T06:02:27.241Z,92.30
2023-09-02T06:04:54.891Z,92.30
2023-09-02T06:07:22.349Z,92.30
2023-09-02T06:09:49.640Z,92.30
2023-09-02T06:12:17.029Z,92.30
2023-09-02T06:14:44.527Z,92.30
2023-09-02T06:17:12.091Z,92.30
2023-09-02T06:19:39.763Z,92.40
2023-09-02T06:22:07.504Z,92.60
2023-09-02T06:24:35.202Z,92.80
2023-09-02T06:27:05.164Z,92.90
2023-09-02T06:29:33.824Z,93.00
2023-09-02T06:32:01.568Z,93.10
2023-09-02T06:34:32.494Z,93.10
2023-09-02T06:37:00.578Z,93.10
2023-09-02T06:39:27.925Z,93.10
2023-09-02T06:41:55.644Z,93.20
2023-09-02T06:44:23.551Z,93.20
2023-09-02T06:46:51.173Z,93.30
2023-09-02T06:49:18.746Z,93.40
2023-09-02T06:51:46.102Z,93.50
2023-09-02T06:54:13.461Z,93.50
2023-09-02T06:56:41.186Z,93.50
2023-09-02T06:59:08.677Z,93.50
2023-09-02T07:01:37.041Z,93.50
2023-09-02T07:04:04.815Z,93.60
2023-09-02T07:06:32.203Z,93.60
2023-09-02T07:09:00.257Z,93.60
2023-09-02T07:11:30.885Z,93.60
2023-09-02T07:13:59.296Z,93.70
2023-09-02T07:16:28.226Z,93.60
2023-09-02T07:18:56.432Z,93.70
2023-09-02T07:21:24.307Z,93.70
2023-09-02T07:23:54.414Z,93.70
2023-09-02T07:26:23.629Z,93.70
2023-09-02T07:28:51.663Z,93.70
2023-09-02T07:31:19.066Z,93.60
2023-09-02T07:33:47.589Z,93.70
2023-09-02T07:36:18.280Z,93.60
2023-09-02T07:38:45.842Z,93.60
2023-09-02T07:41:13.317Z,93.70
2023-09-02T07:43:41.012Z,93.70
2023-09-02T07:46:10.846Z,93.70
2023-09-02T07:48:38.202Z,93.70
2023-09-02T07:51:06.084Z,93.70
2023-09-02T07:53:33.553Z,93.70
2023-09-02T07:56:01.232Z,93.70
2023-09-02T07:58:28.713Z,93.70
2023-09-02T08:00:59.307Z,93.70
2023-09-02T08:03:27.033Z,93.70
2023-09-02T08:05:54.983Z,93.70
2023-09-02T08:08:26.497Z,93.80
2023-09-02T08:11:08.590Z,93.70
2023-09-02T08:13:36.232Z,93.80
2023-09-02T08:16:07.190Z,93.80
2023-09-02T08:18:35.659Z,94.10
2023-09-02T08:21:11.082Z,93.90
2023-09-02T08:23:41.755Z,93.90
2023-09-02T08:26:14.668Z,93.90
2023-09-02T08:28:43.968Z,93.90
2023-09-02T08:31:13.037Z,93.90
2023-09-02T08:33:40.926Z,93.90
2023-09-02T08:36:15.094Z,93.90
2023-09-02T08:38:42.672Z,93.90
2023-09-02T08:41:17.275Z,93.90
2023-09-02T08:43:45.174Z,94.00
2023-09-02T08:46:14.636Z,94.10
2023-09-02T08:48:44.605Z,94.10
2023-09-02T08:51:13.538Z,94.10
2023-09-02T08:53:43.670Z,94.10
2023-09-02T08:56:12.528Z,94.10
2023-09-02T08:58:41.979Z,94.30
2023-09-02T09:01:17.811Z,94.30
2023-09-02T09:03:50.710Z,94.40
2023-09-02T09:06:21.321Z,94.50
2023-09-02T09:08:50.107Z,94.50
2023-09-02T09:11:18.776Z,94.50
2023-09-02T09:13:47.912Z,94.50
2023-09-02T09:16:22.289Z,94.60
2023-09-02T09:18:51.638Z,94.60
2023-09-02T09:21:19.788Z,94.70
2023-09-02T09:23:47.163Z,94.60
2023-09-02T09:26:17.174Z,94.70
2023-09-02T09:28:59.745Z,94.60
2023-09-02T09:31:28.649Z,94.60
2023-09-02T09:34:03.134Z,94.50
2023-09-02T09:36:32.853Z,94.40
2023-09-02T09:39:06.438Z,94.50
2023-09-02T09:41:36.374Z,94.50
2023-09-02T09:44:14.924Z,94.60
2023-09-02T09:46:45.612Z,94.60
2023-09-02T09:49:33.714Z,94.50
2023-09-02T09:52:01.356Z,94.40
2023-09-02T09:54:49.393Z,94.40
2023-09-02T09:57:40.802Z,94.30
2023-09-02T10:00:09.465Z,94.10
2023-09-02T10:02:37.151Z,94.10
2023-09-02T10:05:04.841Z,94.10
2023-09-02T10:07:35.057Z,94.30
2023-09-02T10:10:06.252Z,94.30
2023-09-02T10:12:39.269Z,94.00
2023-09-02T10:15:09.086Z,94.00
2023-09-02T10:17:38.656Z,94.00
2023-09-02T10:20:07.274Z,94.00
2023-09-02T10:22:40.384Z,94.00
2023-09-02T10:25:30.217Z,93.90
2023-09-02T10:28:12.916Z,93.90
2023-09-02T10:31:01.349Z,93.90
2023-09-02T10:33:55.912Z,94.00
2023-09-02T10:36:28.774Z,94.10
2023-09-02T10:39:02.625Z,94.10
2023-09-02T10:41:32.392Z,94.20
2023-09-02T10:44:00.984Z,94.30
2023-09-02T10:46:29.609Z,94.20
2023-09-02T10:48:59.336Z,94.20
2023-09-02T10:51:29.683Z,94.20
2023-09-02T10:54:01.913Z,94.20
2023-09-02T10:56:32.870Z,94.20
2023-09-02T10:59:03.277Z,94.30
2023-09-02T11:01:45.876Z,94.30
2023-09-02T11:04:14.612Z,94.30
2023-09-02T11:07:28.729Z,94.40
2023-09-02T11:09:58.085Z,94.40
2023-09-02T11:12:26.582Z,94.40
2023-09-02T11:15:13.789Z,94.40
2023-09-02T11:17:46.111Z,94.30
2023-09-02T11:20:16.727Z,94.40
2023-09-02T11:22:56.594Z,94.40
2023-09-02T11:25:43.815Z,94.30
2023-09-02T11:28:20.845Z,94.30
2023-09-02T11:31:11.500Z,94.30
2023-09-02T11:33:41.536Z,94.30
2023-09-02T11:36:16.966Z,94.20
2023-09-02T11:38:45.364Z,94.30
2023-09-02T11:41:26.701Z,94.30
2023-09-02T11:43:56.217Z,94.90
2023-09-02T11:46:23.695Z,97.40
2023-09-02T11:48:51.124Z,97.00
2023-09-02T11:51:18.729Z,95.60
2023-09-02T11:53:47.620Z,94.90
2023-09-02T11:56:15.132Z,97.80
2023-09-02T11:58:43.257Z,97.90
2023-09-02T12:01:10.631Z,98.40
2023-09-02T12:03:40.653Z,94.50
2023-09-02T12:06:09.351Z,94.70
2023-09-02T12:08:37.568Z,95.10
2023-09-02T12:11:05.784Z,93.90
2023-09-02T12:13:33.459Z,93.80
2023-09-02T12:16:01.184Z,93.80
2023-09-02T12:18:29.495Z,93.70
2023-09-02T12:20:58.040Z,93.70
2023-09-02T12:23:25.497Z,93.70
2023-09-02T12:26:11.389Z,93.70
2023-09-02T12:28:49.272Z,93.70
2023-09-02T12:31:18.811Z,93.60
2023-09-02T12:33:53.276Z,93.60
2023-09-02T12:36:20.866Z,93.60
2023-09-02T12:38:54.456Z,93.60
2023-09-02T12:41:21.775Z,93.60
2023-09-02T12:43:49.398Z,93.50
2023-09-02T12:46:22.747Z,93.60
2023-09-02T12:48:50.359Z,93.60
2023-09-02T12:51:29.044Z,93.60
2023-09-02T12:53:58.131Z,93.50
2023-09-02T12:56:25.424Z,93.70
2023-09-02T12:58:54.189Z,93.40
2023-09-02T13:01:21.844Z,93.40
2023-09-02T13:03:49.621Z,93.40
2023-09-02T13:06:17.386Z,93.50
2023-09-02T13:08:44.776Z,93.50
2023-09-02T13:11:12.436Z,93.60
2023-09-02T13:13:40.185Z,93.70
2023-09-02T13:16:07.980Z,93.80
2023-09-02T13:18:35.948Z,93.80
2023-09-02T13:21:04.038Z,96.90
2023-09-02T13:23:34.637Z,99.60
2023-09-02T13:26:18.219Z,99.90
2023-09-02T13:28:45.690Z,99.90
2023-09-02T13:31:13.893Z,99.90
2023-09-02T13:33:43.754Z,99.60
2023-09-02T13:36:13.540Z,99.90
2023-09-02T13:38:41.918Z,99.90
2023-09-02T13:41:11.563Z,99.90
2023-09-02T13:43:40.678Z,99.90
2023-09-02T13:46:08.963Z,99.90
2023-09-02T13:48:36.631Z,99.90
2023-09-02T13:51:05.941Z,93.60
2023-09-02T13:53:38.634Z,93.50
2023-09-02T13:56:06.103Z,93.50
2023-09-02T13:58:38.029Z,93.90
2023-09-02T14:01:06.482Z,94.40
2023-09-02T14:03:34.665Z,95.20
2023-09-02T14:06:05.308Z,95.70
2023-09-02T14:08:43.311Z,96.00
2023-09-02T14:11:10.893Z,96.60
2023-09-02T14:13:42.875Z,97.40
2023-09-02T14:16:11.099Z,97.70
2023-09-02T14:18:38.864Z,98.10
2023-09-02T14:21:07.159Z,98.10
2023-09-02T14:23:34.930Z,99.00
2023-09-02T14:26:03.314Z,98.90
2023-09-02T14:28:32.172Z,99.40
2023-09-02T14:31:00.227Z,99.90
2023-09-02T14:33:27.957Z,99.90
2023-09-02T14:35:55.533Z,99.90
2023-09-02T14:38:22.944Z,99.90
2023-09-02T14:40:50.602Z,99.90
2023-09-02T14:43:18.631Z,99.90
2023-09-02T14:45:46.432Z,99.90
2023-09-02T14:48:14.529Z,99.90
2023-09-02T14:50:42.925Z,99.90
2023-09-02T14:53:10.215Z,99.90
2023-09-02T14:55:39.163Z,99.90
2023-09-02T14:58:07.025Z,99.60
2023-09-02T15:00:34.796Z,93.30
2023-09-02T15:03:03.282Z,93.30
2023-09-02T15:05:35.388Z,93.40
2023-09-02T15:08:07.632Z,93.40
2023-09-02T15:10:37.142Z,93.30
2023-09-02T15:13:05.220Z,93.00
2023-09-02T15:15:40.769Z,93.10
2023-09-02T15:18:31.607Z,93.30
2023-09-02T15:21:03.035Z,93.10
2023-09-02T15:23:33.774Z,93.40
2023-09-02T15:26:03.021Z,93.60
2023-09-02T15:28:31.021Z,93.90
2023-09-02T15:30:59.795Z,93.70
2023-09-02T15:33:28.855Z,93.60
2023-09-02T15:35:57.431Z,93.30
2023-09-02T15:38:25.156Z,93.30
2023-09-02T15:40:52.968Z,93.60
2023-09-02T15:43:21.871Z,93.40
2023-09-02T15:45:49.667Z,93.40
2023-09-02T15:48:17.024Z,93.20
2023-09-02T15:50:45.306Z,93.40
2023-09-02T15:53:13.362Z,93.10
2023-09-02T15:55:40.752Z,93.10
2023-09-02T15:58:08.169Z,93.10
2023-09-02T16:00:35.785Z,93.30
2023-09-02T16:03:04.490Z,93.40
2023-09-02T16:05:32.356Z,93.30
2023-09-02T16:08:00.336Z,93.30
2023-09-02T16:10:27.699Z,93.10
2023-09-02T16:12:55.050Z,93.00
2023-09-02T16:15:26.731Z,93.60
2023-09-02T16:17:54.529Z,95.00
2023-09-02T16:20:22.947Z,95.60
2023-09-02T16:22:50.378Z,95.60
2023-09-02T16:25:18.031Z,95.60
2023-09-02T16:27:45.531Z,95.60
2023-09-02T16:30:13.936Z,95.60
2023-09-02T16:32:42.693Z,95.60
2023-09-02T16:35:10.569Z,95.40
2023-09-02T16:37:43.996Z,95.50
2023-09-02T16:40:13.298Z,95.30
2023-09-02T16:42:43.440Z,95.20
2023-09-02T16:45:14.392Z,96.60
2023-09-02T16:50:38.346Z,96.50
2023-09-02T16:53:05.825Z,96.50
2023-09-02T16:55:34.155Z,96.60
2023-09-02T16:58:01.711Z,96.70
2023-09-02T17:00:36.259Z,96.50
2023-09-02T17:03:06.855Z,96.40
2023-09-02T17:05:35.902Z,95.90
2023-09-02T17:08:10.560Z,95.80
2023-09-02T17:10:38.095Z,95.70
2023-09-02T17:13:08.359Z,95.70
2023-09-02T17:15:39.922Z,95.70
2023-09-02T17:18:15.462Z,95.70
2023-09-02T17:20:47.051Z,95.60
2023-09-02T17:23:19.958Z,95.50
2023-09-02T17:25:50.218Z,95.40
2023-09-02T17:28:28.752Z,95.50
2023-09-02T17:30:59.940Z,95.40
2023-09-02T17:33:29.117Z,95.40
2023-09-02T17:35:56.549Z,95.70
2023-09-02T17:38:24.721Z,95.50
2023-09-02T17:40:52.122Z,95.40
2023-09-02T17:43:19.516Z,95.30
2023-09-02T17:45:46.879Z,95.30
2023-09-02T17:48:14.725Z,95.40
2023-09-02T17:50:42.535Z,95.30
2023-09-02T17:53:09.941Z,95.30
2023-09-02T17:55:37.529Z,95.20
2023-09-02T17:58:06.672Z,95.20
2023-09-02T18:00:34.407Z,95.50
2023-09-02T18:03:03.403Z,95.20
2023-09-02T18:05:31.566Z,95.10
2023-09-02T18:08:01.695Z,95.10
2023-09-02T18:10:29.161Z,95.10
2023-09-02T18:12:56.889Z,95.10
2023-09-02T18:15:24.658Z,95.00
2023-09-02T18:17:52.845Z,95.00
2023-09-02T18:20:20.414Z,94.90
2023-09-02T18:22:47.841Z,94.80
2023-09-02T18:25:15.825Z,95.10
2023-09-02T18:27:43.190Z,94.70
2023-09-02T18:30:11.679Z,94.70
2023-09-02T18:32:39.156Z,95.40
2023-09-02T18:35:07.243Z,95.80
2023-09-02T18:37:34.587Z,95.70
2023-09-02T18:40:02.054Z,95.60
2023-09-02T18:42:29.601Z,95.60
2023-09-02T18:44:57.140Z,95.60
2023-09-02T18:47:24.745Z,95.60
2023-09-02T18:49:52.224Z,95.50
2023-09-02T18:52:19.514Z,95.40
2023-09-02T18:54:47.087Z,95.40
2023-09-02T18:57:16.083Z,95.30
2023-09-02T18:59:46.582Z,95.30
2023-09-02T19:02:14.379Z,95.10
2023-09-02T19:04:44.113Z,95.00
2023-09-02T19:07:11.697Z,95.00
2023-09-02T19:09:39.407Z,95.00
2023-09-02T19:12:07.630Z,94.90
2023-09-02T19:14:36.034Z,94.90
2023-09-02T19:17:03.849Z,94.80
2023-09-02T19:19:31.423Z,94.80
2023-09-02T19:21:58.998Z,94.80
2023-09-02T19:24:26.923Z,94.70
2023-09-02T19:26:54.531Z,94.70
2023-09-02T19:29:21.905Z,94.70
2023-09-02T19:31:49.547Z,94.90
2023-09-02T19:34:20.163Z,94.60
2023-09-02T19:36:49.262Z,94.60
2023-09-02T19:39:19.257Z,94.60
2023-09-02T19:41:48.573Z,94.60
2023-09-02T19:44:16.904Z,94.60
2023-09-02T19:46:47.185Z,94.50
2023-09-02T19:49:23.990Z,94.50
2023-09-02T19:51:51.566Z,94.50
2023-09-02T19:54:19.053Z,94.50
2023-09-02T19:56:46.553Z,94.50
2023-09-02T19:59:14.642Z,94.40
2023-09-02T20:01:42.114Z,94.40
2023-09-02T20:04:10.592Z,94.50
2023-09-02T20:06:38.377Z,94.40
2023-09-02T20:09:06.068Z,94.40
2023-09-02T20:11:34.251Z,94.30
2023-09-02T20:14:05.214Z,94.30
2023-09-02T20:16:33.414Z,94.40
2023-09-02T20:19:01.180Z,94.30
2023-09-02T20:21:30.823Z,94.30
2023-09-02T20:23:59.292Z,94.40
2023-09-02T20:26:26.964Z,94.50
2023-09-02T20:28:54.970Z,94.50
2023-09-02T20:31:23.112Z,94.60
2023-09-02T20:33:53.285Z,94.60
2023-09-02T20:36:22.227Z,94.50
2023-09-02T20:38:50.477Z,94.50
2023-09-02T20:41:21.037Z,94.60
2023-09-02T20:43:48.564Z,94.60
2023-09-02T20:46:17.535Z,94.90
2023-09-02T20:48:45.158Z,95.10
2023-09-02T20:51:16.800Z,95.10
2023-09-02T20:53:48.341Z,95.10
2023-09-02T20:56:15.845Z,95.10
2023-09-02T20:58:44.663Z,95.10
2023-09-02T21:01:14.239Z,95.10
2023-09-02T21:03:41.599Z,95.10
2023-09-02T21:06:11.316Z,95.10
2023-09-02T21:08:39.383Z,95.20
2023-09-02T21:11:11.800Z,95.20
2023-09-02T21:13:45.292Z,95.10
2023-09-02T21:16:20.469Z,95.10
2023-09-02T21:18:48.124Z,95.10
2023-09-02T21:21:23.942Z,95.10
2023-09-02T21:23:51.997Z,95.30
2023-09-02T21:26:21.147Z,95.50
2023-09-02T21:28:51.753Z,95.60
2023-09-02T21:31:22.799Z,95.70
2023-09-02T21:33:52.644Z,95.80
2023-09-02T21:36:21.684Z,95.80
2023-09-02T21:38:50.233Z,95.80
2023-09-02T21:41:17.902Z,95.80
2023-09-02T21:43:45.627Z,95.70
2023-09-02T21:46:14.218Z,95.70
2023-09-02T21:48:42.470Z,95.70
2023-09-02T21:51:12.294Z,95.60
2023-09-02T21:53:44.080Z,95.90
2023-09-02T21:56:12.511Z,95.60
2023-09-02T21:58:41.344Z,95.60
2023-09-02T22:01:14.824Z,95.70
2023-09-02T22:03:42.548Z,95.70
2023-09-02T22:06:12.887Z,95.60
2023-09-02T22:08:44.118Z,95.50
2023-09-02T22:11:12.877Z,95.60
2023-09-02T22:13:42.219Z,95.70
2023-09-02T22:16:09.779Z,95.60
2023-09-02T22:18:41.431Z,95.60
2023-09-02T22:21:15.776Z,95.60
2023-09-02T22:23:43.666Z,95.60
2023-09-02T22:26:10.957Z,95.60
2023-09-02T22:28:39.219Z,95.70
2023-09-02T22:31:07.484Z,95.60
2023-09-02T22:33:36.493Z,95.60
2023-09-02T22:36:04.309Z,95.70
2023-09-02T22:38:54.733Z,95.70
2023-09-02T22:41:23.076Z,95.60
2023-09-02T22:43:50.677Z,95.60
2023-09-02T22:46:18.254Z,95.70
2023-09-02T22:48:45.940Z,95.60
2023-09-02T22:51:13.967Z,95.60
2023-09-02T22:53:41.721Z,95.50
2023-09-02T22:56:15.289Z,95.50
2023-09-02T22:58:43.556Z,95.40
2023-09-02T23:01:14.172Z,95.50
2023-09-02T23:03:45.246Z,95.50
2023-09-02T23:06:13.765Z,95.50
2023-09-02T23:08:43.861Z,95.40
2023-09-02T23:11:11.229Z,95.40
2023-09-02T23:13:38.559Z,95.30
2023-09-02T23:16:06.214Z,95.40
2023-09-02T23:18:34.873Z,95.40
2023-09-02T23:21:17.781Z,95.30
2023-09-02T23:23:45.897Z,95.40
2023-09-02T23:26:13.725Z,95.40
2023-09-02T23:28:42.332Z,95.30
2023-09-02T23:31:09.733Z,95.30
2023-09-02T23:33:38.938Z,95.30
2023-09-02T23:36:07.978Z,95.30
2023-09-02T23:38:35.577Z,95.30
2023-09-02T23:41:03.352Z,95.40
2023-09-02T23:43:31.618Z,95.30
2023-09-02T23:45:59.835Z,95.30
2023-09-02T23:48:30.688Z,95.20
2023-09-02T23:50:59.605Z,95.30
2023-09-02T23:53:28.565Z,95.20
2023-09-02T23:55:57.597Z,95.20
2023-09-02T23:58:25.563Z,95.10
